Time;durP1;ratioP1;P1;durP2;ratioP2;P2;SDS_P1;SDS_P2;PMS_P1;PMS_P2;Temp;Humidity;BMP_temperature;BMP_pressure;BME280_temperature;BME280_humidity;BME280_pressure;Samples;Min_cycle;Max_cycle;Signal;HPM_P1;HPM_P2
2022/09/22 00:02:05;;;;;;;4.07;2.88;;;19.50;99.90;;;19.42;65.45;99238.69;5107957;27;20058;-75
2022/09/22 00:04:31;;;;;;;3.55;2.75;;;19.50;99.90;;;19.45;65.85;99242.72;5092690;27;20467;-75
2022/09/22 00:06:57;;;;;;;4.25;3.08;;;19.50;99.90;;;19.40;66.38;99237.38;5106216;27;20036;-75
2022/09/22 00:09:24;;;;;;;4.20;3.17;;;19.50;99.90;;;19.39;66.55;99231.09;5102238;27;20137;-75
2022/09/22 00:11:50;;;;;;;3.92;3.08;;;19.50;99.90;;;19.36;65.98;99239.16;5091025;27;20066;-75
2022/09/22 00:14:25;;;;;;;5.25;3.08;;;19.40;99.90;;;19.38;65.79;99234.16;5061836;28;20143;-75
2022/09/22 00:16:57;;;;;;;3.38;2.97;;;19.50;99.90;;;19.36;65.85;99233.66;5089532;27;20123;-75
2022/09/22 00:19:25;;;;;;;;;;;19.40;99.90;;;19.38;65.92;99245.16;5106681;27;20042;-75
2022/09/22 00:21:51;;;;;;;5.78;3.22;;;19.40;99.90;;;19.41;66.29;99244.50;5104027;27;19926;-75
2022/09/22 00:24:18;;;;;;;3.83;3.17;;;19.50;99.90;;;19.36;66.63;99250.16;5091677;27;20046;-75
2022/09/22 00:26:44;;;;;;;3.10;2.58;;;19.50;99.90;;;19.28;66.71;99260.84;5103368;27;20039;-75
2022/09/22 00:29:10;;;;;;;3.60;2.55;;;19.40;99.90;;;19.34;66.23;99257.94;5101993;27;20115;-75
2022/09/22 00:31:38;;;;;;;3.83;3.13;;;19.40;99.90;;;19.34;65.95;99250.50;5086738;28;20037;-75
2022/09/22 00:34:04;;;;;;;4.70;2.67;;;19.40;99.90;;;19.34;66.12;99250.50;5087186;27;20083;-75
2022/09/22 00:36:30;;;;;;;3.22;2.92;;;19.40;99.90;;;19.29;66.77;99245.94;5104517;27;20043;-75
2022/09/22 00:38:57;;;;;;;3.65;2.58;;;19.40;99.90;;;19.32;66.72;99238.19;5089221;27;20461;-75
2022/09/22 00:41:29;;;;;;;3.72;3.33;;;19.40;99.90;;;19.30;66.86;99253.06;5124549;27;20119;-75
2022/09/22 00:44:26;;;;;;;4.72;3.15;;;19.40;99.90;;;19.30;66.20;99244.81;5109503;28;20051;-74
2022/09/22 00:47:31;;;;;;;3.65;2.90;;;19.40;99.90;;;19.29;66.30;99251.44;5106238;28;20035;-74
2022/09/22 00:50:18;;;;;;;4.20;3.03;;;19.30;99.90;;;19.29;66.14;99245.16;5081639;28;20048;-75
2022/09/22 00:53:02;;;;;;;5.18;3.33;;;19.30;99.90;;;19.30;66.70;99247.56;5093469;28;20039;-75
2022/09/22 00:55:42;;;;;;;3.55;2.50;;;19.30;99.90;;;19.30;66.80;99246.75;5108821;28;20031;-75
2022/09/22 00:58:18;;;;;;;3.70;2.97;;;19.40;99.90;;;19.28;66.64;99249.00;5091989;28;20646;-75
2022/09/22 01:00:44;;;;;;;3.95;3.10;;;19.40;99.90;;;19.26;66.45;99240.28;5096423;28;20713;-75
2022/09/22 01:03:19;;;;;;;4.63;2.90;;;19.40;99.90;;;19.23;66.50;99247.25;5091864;28;20088;-75
2022/09/22 01:05:46;;;;;;;4.18;2.92;;;19.30;99.90;;;19.25;66.45;99238.66;5115126;27;20055;-75
2022/09/22 01:08:12;;;;;;;4.57;2.90;;;19.30;99.90;;;19.28;66.42;99252.59;5080415;27;20036;-75
2022/09/22 01:10:38;;;;;;;3.42;2.60;;;19.30;99.90;;;19.26;66.83;99246.59;5098639;27;20706;-75
2022/09/22 01:13:20;;;;;;;4.63;3.53;;;19.30;99.90;;;19.26;67.44;99251.28;5095822;28;20050;-75
2022/09/22 01:16:11;;;;;;;3.60;2.90;;;19.30;99.90;;;19.23;66.46;99261.00;5097893;27;20040;-75
2022/09/22 01:18:55;;;;;;;3.73;3.00;;;19.30;99.90;;;19.23;66.53;99246.41;5110129;27;20115;-75
2022/09/22 01:21:50;;;;;;;4.75;3.17;;;19.30;99.90;;;19.22;66.39;99244.78;5112117;27;20683;-75
2022/09/22 01:24:44;;;;;;;5.70;3.50;;;19.20;99.90;;;19.25;66.63;99253.22;5112602;27;20118;-75
2022/09/22 01:27:50;;;;;;;4.00;2.70;;;19.30;99.90;;;19.24;66.94;99248.84;5111503;27;20038;-74
2022/09/22 01:30:40;;;;;;;3.72;2.83;;;19.30;99.90;;;19.23;66.83;99240.91;5082238;28;20058;-75
2022/09/22 01:33:11;;;;;;;2.90;2.70;;;19.30;99.90;;;19.21;66.40;99251.41;5096402;27;20505;-75
2022/09/22 01:36:01;;;;;;;3.83;2.83;;;19.20;99.90;;;19.23;66.45;99240.91;5113803;27;20444;-74
2022/09/22 01:38:30;;;;;;;2.50;2.30;;;19.20;99.90;;;19.16;66.69;99241.41;5104892;27;20058;-74
2022/09/22 01:41:07;;;;;;;3.50;2.80;;;19.20;99.90;;;19.21;66.80;99241.25;5096773;27;20032;-74
2022/09/22 01:43:51;;;;;;;3.25;2.55;;;19.20;99.90;;;19.20;67.14;99242.34;5107469;27;20118;-74
2022/09/22 01:46:42;;;;;;;4.88;2.70;;;19.20;99.90;;;19.22;66.81;99237.34;5094730;27;20479;-74
2022/09/22 01:49:09;;;;;;;3.70;2.72;;;19.20;99.90;;;19.16;66.81;99235.06;5110080;27;20043;-75
2022/09/22 01:51:58;;;;;;;3.40;3.08;;;19.30;99.90;;;19.18;66.86;99241.06;5079119;28;20081;-75
2022/09/22 01:54:40;;;;;;;3.17;2.40;;;19.20;99.90;;;19.17;66.71;99237.50;5079989;27;20050;-74
2022/09/22 01:57:13;;;;;;;;;;;19.20;99.90;;;19.21;66.89;99246.75;5096809;27;20039;-75
2022/09/22 01:59:39;;;;;;;4.80;2.92;;;19.20;99.90;;;19.20;67.11;99236.84;5111553;27;19973;-74
2022/09/22 02:02:32;;;;;;;12.00;3.33;;;19.20;99.90;;;19.15;67.48;99244.44;5096767;28;20773;-75
2022/09/22 02:05:01;;;;;;;3.20;2.60;;;19.20;99.90;;;19.14;66.91;99245.59;5080189;27;20040;-75
2022/09/22 02:07:37;;;;;;;3.63;2.90;;;19.20;99.90;;;19.13;66.97;99243.97;5061817;28;20043;-75
2022/09/22 02:10:07;;;;;;;3.20;2.88;;;19.20;99.90;;;19.17;66.77;99243.00;5077301;28;20135;-75
2022/09/22 02:12:35;;;;;;;4.82;2.58;;;19.20;99.90;;;19.18;66.94;99241.06;5092840;27;20139;-74
2022/09/22 02:15:58;;;;;;;3.70;2.80;;;19.20;99.90;;;19.20;67.34;99245.09;5065933;28;20035;-75
2022/09/22 02:17:54;;;;;;;4.22;2.78;;;19.30;99.90;;;19.18;67.33;99235.56;5079619;27;20042;-75
2022/09/22 02:20:20;;;;;;;4.13;2.65;;;19.20;99.90;;;19.17;66.83;99236.69;5105942;27;20123;-75
2022/09/22 02:22:46;;;;;;;3.90;3.28;;;19.20;99.90;;;19.17;66.67;99233.94;5115368;27;20391;-75
2022/09/22 02:25:13;;;;;;;3.25;2.92;;;19.20;99.90;;;19.15;66.72;99234.25;5095329;27;20409;-75
2022/09/22 02:27:39;;;;;;;2.30;2.13;;;19.20;99.90;;;19.17;66.83;99236.69;5095102;27;20457;-75
2022/09/22 02:30:08;;;;;;;4.25;2.90;;;19.20;99.90;;;19.16;67.16;99233.16;5061675;27;20036;-75
2022/09/22 02:32:35;;;;;;;3.65;3.00;;;19.20;99.90;;;19.17;67.31;99232.00;5083199;27;20565;-75
2022/09/22 02:35:01;;;;;;;3.75;2.90;;;19.20;99.90;;;19.17;67.20;99233.94;5092814;27;20032;-75
2022/09/22 02:37:59;;;;;;;4.35;3.33;;;19.20;99.90;;;19.15;66.81;99239.75;5089248;28;20040;-75
2022/09/22 02:41:11;;;;;;;3.17;2.75;;;19.20;99.90;;;19.15;66.67;99239.75;5108224;27;20036;-75
2022/09/22 02:43:47;;;;;;;2.92;2.53;;;19.20;99.90;;;19.11;66.85;99237.97;5107335;27;20048;-75
2022/09/22 02:46:24;;;;;;;6.30;3.22;;;19.20;99.90;;;19.14;67.21;99231.84;5089507;28;20127;-75
2022/09/22 02:49:00;;;;;;;2.97;2.13;;;19.20;99.90;;;19.15;67.19;99234.25;5111139;27;20040;-75
2022/09/22 02:51:28;;;;;;;3.80;3.05;;;19.20;99.90;;;19.15;66.98;99238.94;5096113;27;20038;-75
2022/09/22 02:53:54;;;;;;;4.53;3.20;;;19.20;99.90;;;19.15;66.51;99223.25;5079780;28;20396;-75
2022/09/22 02:56:20;;;;;;;7.10;3.30;;;19.20;99.90;;;19.13;66.77;99222.75;5103594;27;20043;-75
2022/09/22 02:58:46;;;;;;;6.13;2.67;;;19.20;99.90;;;19.13;66.64;99221.97;5111117;27;20058;-75
2022/09/22 03:01:12;;;;;;;4.25;3.15;;;19.10;99.90;;;19.15;67.05;99225.22;5088621;28;20039;-75
2022/09/22 03:03:38;;;;;;;3.28;2.97;;;19.10;99.90;;;19.15;67.14;99226.00;5090058;28;20036;-75
2022/09/22 03:06:04;;;;;;;4.88;3.40;;;19.20;99.90;;;19.16;67.21;99230.41;5095816;28;20050;-75
2022/09/22 03:08:31;;;;;;;3.33;2.55;;;19.20;99.90;;;19.15;66.83;99228.75;5105381;27;20459;-75
2022/09/22 03:10:56;;;;;;;3.70;2.95;;;19.20;99.90;;;19.14;66.76;99237.34;5107024;27;20027;-75
2022/09/22 03:13:23;;;;;;;4.22;2.83;;;19.20;99.90;;;19.11;66.60;99241.53;5103809;27;20479;-75
2022/09/22 03:15:49;;;;;;;3.95;3.38;;;19.20;99.90;;;19.09;66.77;99235.56;5112126;27;20069;-75
2022/09/22 03:18:16;;;;;;;5.25;3.28;;;19.20;99.90;;;19.11;67.09;99235.22;5114281;27;20044;-75
2022/09/22 03:20:42;;;;;;;3.33;3.03;;;19.10;99.90;;;19.13;67.34;99233.75;5079226;28;20066;-75
2022/09/22 03:23:08;;;;;;;3.50;3.03;;;19.20;99.90;;;19.14;66.94;99232.66;5087989;28;20071;-75
2022/09/22 03:25:34;;;;;;;3.97;2.50;;;19.20;99.90;;;19.12;66.84;99234.91;5106636;27;20059;-75
2022/09/22 03:28:01;;;;;;;6.10;2.40;;;19.10;99.90;;;19.11;67.00;99227.78;5110394;27;20118;-75
2022/09/22 03:30:27;;;;;;;4.60;3.42;;;19.10;99.90;;;19.07;66.82;99237.81;5092018;28;20127;-75
2022/09/22 03:32:53;;;;;;;3.35;3.00;;;19.10;99.90;;;19.12;66.98;99236.84;5088353;27;20039;-75
2022/09/22 03:35:19;;;;;;;7.30;2.40;;;19.10;99.90;;;19.14;67.24;99240.09;5092822;28;20433;-75
2022/09/22 03:37:45;;;;;;;4.05;3.33;;;19.10;99.90;;;19.12;67.25;99239.59;5105056;27;20092;-75
2022/09/22 03:40:11;;;;;;;4.18;3.20;;;19.20;99.90;;;19.11;66.56;99247.03;5101333;27;20078;-75
2022/09/22 03:42:38;;;;;;;3.47;3.17;;;19.20;99.90;;;19.08;66.79;99242.16;5090094;28;20035;-75
2022/09/22 03:45:04;;;;;;;3.63;2.47;;;19.10;99.90;;;19.07;66.77;99237.81;5089532;27;20053;-75
2022/09/22 03:47:30;;;;;;;3.05;2.80;;;19.10;99.90;;;19.08;66.67;99242.16;5093370;28;20047;-75
2022/09/22 03:49:57;;;;;;;4.35;3.13;;;19.10;99.90;;;19.11;66.90;99244.28;5088658;28;20046;-75
2022/09/22 03:52:23;;;;;;;3.63;2.70;;;19.10;99.90;;;19.07;66.95;99243.31;5105872;27;20470;-75
2022/09/22 03:54:51;;;;;;;2.85;2.58;;;19.20;99.90;;;19.06;66.11;99241.69;5077235;27;20050;-75
2022/09/22 03:57:17;;;;;;;3.72;2.58;;;19.10;99.90;;;19.02;65.66;99246.19;5099152;27;20509;-74
2022/09/22 03:59:43;;;;;;;2.70;2.45;;;19.10;99.90;;;19.06;65.77;99241.69;5086543;27;20710;-75
2022/09/22 04:02:09;;;;;;;3.03;2.53;;;19.10;99.90;;;19.05;65.42;99249.09;5131675;27;20049;-75
2022/09/22 04:04:36;;;;;;;2.88;2.55;;;19.10;99.90;;;19.06;66.17;99255.44;5112950;27;20067;-75
2022/09/22 04:07:02;;;;;;;3.38;2.17;;;19.10;99.90;;;19.04;66.58;99249.44;5103223;27;20539;-74
2022/09/22 04:09:28;;;;;;;3.47;2.55;;;19.10;99.90;;;19.05;65.75;99251.84;5078891;27;20040;-74
2022/09/22 04:11:54;;;;;;;4.90;2.80;;;19.10;99.90;;;19.03;65.13;99251.38;5072935;27;20043;-74
2022/09/22 04:14:20;;;;;;;2.95;2.63;;;19.10;99.90;;;19.04;64.86;99249.44;5108688;27;20047;-74
2022/09/22 04:16:46;;;;;;;4.25;3.42;;;19.10;99.90;;;18.99;64.70;99253.16;5090886;28;20043;-74
2022/09/22 04:19:12;;;;;;;4.80;3.67;;;19.00;99.90;;;19.03;65.60;99248.63;5113092;27;20070;-75
2022/09/22 04:21:40;;;;;;;8.38;2.72;;;19.10;99.90;;;19.05;65.89;99251.06;5106770;27;20482;-74
2022/09/22 04:24:10;;;;;;;3.45;2.60;;;19.00;99.90;;;19.06;66.03;99258.19;5094865;27;20082;-74
2022/09/22 04:26:37;;;;;;;3.33;2.78;;;19.10;99.90;;;19.04;64.95;99266.75;5094030;28;20156;-74
2022/09/22 04:29:04;;;;;;;3.70;3.10;;;19.10;99.90;;;18.99;64.79;99266.09;5071194;27;20032;-74
2022/09/22 04:31:30;;;;;;;2.65;2.45;;;19.00;99.90;;;19.00;64.75;99259.44;5105006;27;20058;-75
2022/09/22 04:33:56;;;;;;;4.72;3.70;;;19.00;99.90;;;18.98;64.57;99267.19;5089569;28;20047;-79
2022/09/22 04:36:22;;;;;;;4.13;2.83;;;19.00;99.90;;;19.02;65.50;99260.75;5072977;28;20082;-76
2022/09/22 04:38:48;;;;;;;3.60;3.15;;;19.00;99.90;;;19.04;65.80;99260.44;5104571;27;20035;-76
2022/09/22 04:41:14;;;;;;;3.85;2.78;;;19.10;99.90;;;19.01;65.56;99259.13;5086635;28;20463;-76
2022/09/22 04:43:41;;;;;;;3.30;3.00;;;19.10;99.90;;;19.03;64.49;99258.81;5079334;28;20052;-76
2022/09/22 04:46:07;;;;;;;3.15;2.85;;;19.00;99.90;;;19.03;64.12;99259.63;5107106;28;20661;-76
2022/09/22 04:48:33;;;;;;;4.13;3.22;;;19.00;99.90;;;19.05;63.97;99259.31;5086744;28;20370;-76
2022/09/22 04:50:59;;;;;;;4.28;3.45;;;19.00;99.90;;;19.02;63.96;99258.00;5091532;28;20044;-76
2022/09/22 04:53:25;;;;;;;4.40;2.88;;;19.00;99.90;;;19.07;64.98;99257.84;5101458;28;20445;-76
2022/09/22 04:55:51;;;;;;;2.95;2.65;;;19.00;99.90;;;19.04;65.18;99264.00;5082043;28;20469;-76
2022/09/22 04:58:17;;;;;;;4.65;2.95;;;19.00;99.90;;;19.06;64.22;99258.19;5105170;28;20047;-76
2022/09/22 05:00:43;;;;;;;4.22;3.00;;;19.00;99.90;;;19.03;63.96;99259.63;5100360;28;20044;-76
2022/09/22 05:03:11;;;;;;;4.93;2.70;;;19.00;99.90;;;19.06;63.41;99261.75;5083884;28;20044;-76
2022/09/22 05:05:37;;;;;;;3.05;2.75;;;19.00;99.90;;;19.06;63.45;99259.00;5074958;28;20043;-77
2022/09/22 05:08:04;;;;;;;4.15;3.20;;;19.00;99.90;;;19.10;64.18;99267.41;5090875;28;20039;-77
2022/09/22 05:10:33;;;;;;;3.28;2.97;;;19.10;99.90;;;19.08;64.23;99269.66;5100996;28;20063;-76
2022/09/22 05:12:59;;;;;;;2.83;2.63;;;19.10;99.90;;;19.13;64.33;99276.94;5061181;28;20426;-76
2022/09/22 05:15:25;;;;;;;3.42;2.88;;;19.10;99.90;;;19.12;63.21;99276.16;5089727;28;20051;-76
2022/09/22 05:17:52;;;;;;;5.25;2.45;;;19.10;99.90;;;19.13;63.20;99275.00;5070899;28;20118;-76
2022/09/22 05:20:19;;;;;;;7.13;3.88;;;19.10;99.90;;;19.12;62.97;99273.41;5071737;28;20040;-78
2022/09/22 05:22:46;;;;;;;5.35;3.42;;;19.10;99.90;;;19.08;62.87;99272.41;5080118;28;20441;-78
2022/09/22 05:25:16;;;;;;;3.42;2.55;;;19.10;99.90;;;19.15;63.38;99275.50;5064209;28;20040;-76
2022/09/22 05:27:46;;;;;;;4.57;2.92;;;19.10;99.90;;;19.15;63.74;99275.50;5071941;28;20530;-76
2022/09/22 05:30:13;;;;;;;3.03;2.73;;;19.10;99.90;;;19.16;63.56;99271.66;5082559;28;20042;-76
2022/09/22 05:32:45;;;;;;;3.20;2.80;;;19.20;99.90;;;19.16;63.12;99268.06;5087861;28;20052;-76
2022/09/22 05:35:22;;;;;;;4.57;3.20;;;19.10;99.90;;;19.14;62.50;99267.59;5085238;28;20071;-75
2022/09/22 05:37:49;;;;;;;3.20;2.90;;;19.10;99.90;;;19.13;62.38;99269.50;5087240;28;20044;-76
2022/09/22 05:40:16;;;;;;;2.90;2.67;;;19.10;99.90;;;19.11;63.02;99276.44;5071484;28;20480;-75
2022/09/22 05:42:43;;;;;;;3.45;3.15;;;19.10;99.90;;;19.15;63.55;99278.25;5073412;28;20040;-76
2022/09/22 05:45:09;;;;;;;4.20;3.10;;;19.10;99.90;;;19.16;63.65;99274.41;5076001;27;20138;-75
2022/09/22 05:47:36;;;;;;;3.95;3.08;;;19.20;99.90;;;19.16;62.94;99279.06;5073609;27;20071;-75
2022/09/22 05:50:03;;;;;;;3.80;2.72;;;19.10;99.90;;;19.14;62.47;99273.91;5076449;28;20041;-75
2022/09/22 05:52:29;;;;;;;4.00;2.88;;;19.10;99.90;;;19.19;62.29;99272.94;5072291;27;20068;-75
2022/09/22 05:54:56;;;;;;;3.72;2.33;;;19.10;99.90;;;19.18;62.37;99277.63;5106172;27;20050;-75
2022/09/22 05:57:24;;;;;;;4.28;3.45;;;19.10;99.90;;;19.21;63.07;99282.50;5073293;27;20585;-75
2022/09/22 05:59:51;;;;;;;3.08;2.75;;;19.20;99.90;;;19.22;62.72;99289.59;5095222;28;20047;-75
2022/09/22 06:02:17;;;;;;;5.68;3.85;;;19.20;99.90;;;19.18;62.71;99288.59;5085168;27;20040;-75
2022/09/22 06:04:43;;;;;;;3.78;2.67;;;19.20;99.90;;;19.23;62.97;99290.41;5083237;28;20135;-75
2022/09/22 06:07:09;;;;;;;4.57;3.38;;;19.20;99.90;;;19.29;62.79;99291.91;5090861;28;20048;-75
2022/09/22 06:09:35;;;;;;;4.45;2.97;;;19.20;99.90;;;19.29;62.44;99284.44;5088005;28;20050;-75
2022/09/22 06:12:01;;;;;;;3.17;2.78;;;19.20;99.90;;;19.28;62.53;99299.34;5073648;28;20039;-75
2022/09/22 06:14:27;;;;;;;3.50;2.75;;;19.20;99.90;;;19.32;62.09;99295.94;5067288;28;20115;-75
2022/09/22 06:16:54;;;;;;;4.00;3.42;;;19.20;99.90;;;19.32;62.20;99296.75;5089060;28;20446;-75
2022/09/22 06:19:22;;;;;;;3.08;2.25;;;19.20;99.90;;;19.35;62.63;99290.59;5070543;28;20460;-75
2022/09/22 06:21:51;;;;;;;4.05;3.08;;;19.30;99.90;;;19.39;62.30;99290.81;5104270;27;20263;-75
2022/09/22 06:24:18;;;;;;;5.78;3.40;;;19.30;99.90;;;19.39;62.46;99293.53;5069709;28;20435;-75
2022/09/22 06:26:44;;;;;;;4.00;3.25;;;19.30;99.90;;;19.38;62.12;99300.16;5089135;28;20486;-75
2022/09/22 06:29:10;;;;;;;3.40;2.75;;;19.30;99.90;;;19.39;61.99;99293.53;5089720;28;20058;-75
2022/09/22 06:31:36;;;;;;;3.55;2.92;;;19.30;99.90;;;19.42;61.86;99298.41;5084443;28;20040;-75
2022/09/22 06:34:03;;;;;;;4.20;2.88;;;19.30;99.90;;;19.43;61.67;99295.31;5107144;27;20158;-75
2022/09/22 06:36:31;;;;;;;3.25;2.90;;;19.30;99.90;;;19.45;62.05;99301.31;5088731;27;20069;-76
2022/09/22 06:38:58;;;;;;;2.85;2.60;;;19.30;99.90;;;19.47;62.22;99310.06;5088523;28;20110;-75
2022/09/22 06:41:27;;;;;;;3.58;2.72;;;19.40;99.90;;;19.45;61.87;99301.31;5084366;27;20071;-75
2022/09/22 06:43:55;;;;;;;3.95;2.88;;;19.50;99.90;;;19.44;61.89;99307.16;5087130;28;20451;-75
2022/09/22 06:46:25;;;;;;;3.70;2.75;;;19.40;99.90;;;19.47;61.70;99303.75;5117915;27;20044;-75
2022/09/22 06:49:01;;;;;;;2.80;2.45;;;19.40;99.90;;;19.49;61.65;99309.75;5071950;28;20039;-75
2022/09/22 06:51:29;;;;;;;2.85;2.58;;;19.40;99.90;;;19.52;61.51;99303.59;5104782;27;20065;-75
2022/09/22 06:53:55;;;;;;;3.22;2.92;;;19.50;99.90;;;19.59;61.40;99303.94;5087104;27;20039;-75
2022/09/22 06:56:23;;;;;;;2.85;2.55;;;19.50;99.90;;;19.61;61.02;99307.16;5067013;27;20086;-75
2022/09/22 06:58:50;;;;;;;3.15;2.85;;;19.50;99.90;;;19.65;60.68;99308.16;5088739;27;20154;-75
2022/09/22 07:01:17;;;;;;;4.70;2.80;;;19.50;99.90;;;19.58;61.04;99305.06;5090901;27;20043;-75
2022/09/22 07:03:45;;;;;;;3.13;2.67;;;19.50;99.90;;;19.65;60.64;99305.41;5088869;28;20084;-75
2022/09/22 07:06:15;;;;;;;3.30;2.75;;;19.60;99.90;;;19.69;60.42;99300.91;5087363;28;20151;-75
2022/09/22 07:08:42;;;;;;;4.22;2.63;;;19.60;99.90;;;19.70;60.63;99302.53;5086347;27;20046;-75
2022/09/22 07:11:08;;;;;;;3.17;2.83;;;19.60;99.90;;;19.71;60.50;99298.63;5070801;27;20487;-75
2022/09/22 07:13:39;;;;;;;3.00;2.70;;;19.60;99.90;;;19.70;60.68;99294.28;5069872;28;20063;-76
2022/09/22 07:16:08;;;;;;;3.92;3.28;;;19.60;99.90;;;19.71;60.45;99292.31;5069435;27;20043;-75
2022/09/22 07:18:39;;;;;;;4.43;3.08;;;19.60;99.90;;;19.70;60.32;99297.03;5076026;27;20428;-75
2022/09/22 07:21:13;;;;;;;3.00;2.57;;;19.60;99.90;;;19.75;60.24;99298.81;5086084;27;20278;-75
2022/09/22 07:23:40;;;;;;;3.33;2.53;;;19.60;99.90;;;19.77;59.93;99290.22;5069269;27;20415;-75
2022/09/22 07:26:13;;;;;;;3.05;2.78;;;19.70;99.90;;;19.81;60.28;99296.72;5068543;27;20833;-76
2022/09/22 07:28:39;;;;;;;5.22;2.70;;;19.70;99.90;;;19.80;60.17;99308.84;5104177;27;20051;-76
2022/09/22 07:31:14;;;;;;;3.80;2.63;;;19.70;99.90;;;19.83;59.81;99302.69;5067197;27;20100;-76
2022/09/22 07:33:41;;;;;;;4.25;3.13;;;19.70;99.90;;;19.84;59.65;99305.13;5100894;27;20044;-75
2022/09/22 07:36:17;;;;;;;5.00;2.95;;;19.70;99.90;;;19.84;59.79;99299.59;5070825;28;20126;-76
2022/09/22 07:38:47;;;;;;;4.70;2.95;;;19.70;99.90;;;19.87;59.54;99301.75;5069935;28;20044;-76
2022/09/22 07:41:17;;;;;;;3.72;2.30;;;19.80;99.90;;;19.88;59.53;99297.03;5089284;27;20039;-76
2022/09/22 07:43:43;;;;;;;3.92;2.88;;;19.80;99.90;;;19.90;59.82;99292.81;5066824;28;20055;-76
2022/09/22 07:46:11;;;;;;;2.85;2.58;;;19.80;99.90;;;19.96;59.50;99301.72;5100052;27;20048;-76
2022/09/22 07:48:41;;;;;;;2.90;2.47;;;19.80;99.90;;;19.93;59.16;99294.13;5085754;28;20126;-76
2022/09/22 07:51:18;;;;;;;3.35;2.92;;;19.80;99.90;;;20.02;58.95;99300.41;5071588;28;20043;-76
2022/09/22 07:53:50;;;;;;;3.78;2.60;;;19.90;99.90;;;20.02;58.99;99308.69;5088077;27;20044;-76
2022/09/22 07:56:19;;;;;;;2.40;2.20;;;19.90;99.90;;;20.03;58.72;99304.00;5101387;27;20035;-76
2022/09/22 07:58:52;;;;;;;2.75;2.47;;;19.90;99.90;;;20.02;58.73;99305.94;5063588;28;20593;-76
2022/09/22 08:01:21;;;;;;;2.50;2.30;;;19.90;99.90;;;19.98;59.45;99306.94;5085410;28;20064;-76
2022/09/22 08:03:49;;;;;;;2.55;2.35;;;19.90;99.90;;;20.01;58.90;99309.81;5086466;27;20507;-76
2022/09/22 08:06:18;;;;;;;3.03;2.80;;;19.90;99.90;;;20.06;58.91;99312.41;5069119;28;20340;-76
2022/09/22 08:08:52;;;;;;;2.72;2.53;;;20.00;99.90;;;20.03;58.68;99321.34;5070803;27;20443;-76
2022/09/22 08:11:23;;;;;;;4.43;3.20;;;20.00;99.90;;;20.05;58.72;99326.50;5076232;27;20487;-76
2022/09/22 08:13:53;;;;;;;2.63;2.42;;;20.00;99.90;;;20.07;58.76;99327.78;5105145;27;20054;-76
2022/09/22 08:16:21;;;;;;;3.00;2.70;;;20.00;99.90;;;20.06;58.83;99325.38;5107492;27;20047;-76
2022/09/22 08:18:58;;;;;;;4.10;3.10;;;20.00;99.90;;;20.07;58.68;99327.00;5086552;28;20114;-76
2022/09/22 08:21:34;;;;;;;5.07;2.42;;;20.00;99.90;;;20.08;58.55;99321.19;5089896;27;20064;-76
2022/09/22 08:24:12;;;;;;;4.25;2.95;;;20.00;99.90;;;20.10;58.37;99318.09;5069214;28;20052;-76
2022/09/22 08:26:42;;;;;;;5.47;3.10;;;20.10;99.90;;;20.13;58.30;99317.44;5089945;27;20042;-76
2022/09/22 08:29:09;;;;;;;2.65;2.42;;;20.10;99.90;;;20.13;58.49;99321.00;5067860;27;20097;-76
2022/09/22 08:31:35;;;;;;;2.83;2.35;;;20.10;99.90;;;20.19;58.23;99321.66;5084319;28;20491;-76
2022/09/22 08:34:04;;;;;;;2.78;2.58;;;20.10;99.90;;;20.18;58.23;99322.78;5102334;27;20043;-76
2022/09/22 08:36:30;;;;;;;4.10;2.85;;;20.10;99.90;;;20.19;58.58;99318.09;5101623;28;20050;-76
2022/09/22 08:39:01;;;;;;;3.45;2.58;;;20.10;99.90;;;20.24;57.90;99318.72;5085627;28;20110;-76
2022/09/22 08:41:30;;;;;;;2.75;2.53;;;20.20;99.90;;;20.23;57.85;99321.81;5070815;28;20040;-76
2022/09/22 08:44:27;;;;;;;2.88;2.53;;;20.20;99.90;;;20.14;58.18;99308.84;5100642;28;20078;-76
2022/09/22 08:46:55;;;;;;;3.15;2.75;;;20.20;99.90;;;20.15;58.22;99316.00;5089408;28;20048;-76
2022/09/22 08:52:32;;;;;;;3.30;3.08;;;20.10;99.90;;;20.15;58.10;99307.72;5094825;28;20127;-76
2022/09/22 08:54:58;;;;;;;3.47;2.50;;;20.10;99.90;;;20.17;58.09;99318.41;5103821;28;20036;-76
2022/09/22 08:58:14;;;;;;;3.17;2.40;;;20.20;99.90;;;20.27;57.86;99315.31;5088101;28;20474;-76
2022/09/22 09:00:48;;;;;;;3.05;2.30;;;20.20;99.90;;;20.35;57.35;99314.53;5088094;28;20047;-76
2022/09/22 09:03:42;;;;;;;3.33;2.60;;;20.20;99.90;;;20.42;57.41;99308.50;5088804;28;20119;-76
2022/09/22 09:06:16;;;;;;;3.28;2.25;;;20.20;99.90;;;20.35;57.20;99306.25;5088404;28;20458;-76
2022/09/22 09:09:24;;;;;;;3.08;2.63;;;20.20;99.90;;;20.29;57.73;99301.22;5104319;28;20139;-76
2022/09/22 09:11:57;;;;;;;2.60;2.40;;;20.20;99.90;;;20.32;57.57;99297.81;5081018;28;20095;-76
2022/09/22 09:15:28;;;;;;;2.45;2.25;;;20.20;99.90;;;20.32;57.35;99297.81;5100828;28;20139;-76
2022/09/22 09:17:57;;;;;;;2.70;2.10;;;20.20;99.90;;;20.26;57.56;99290.88;5033164;28;20683;-76
2022/09/22 09:20:47;;;;;;;2.00;1.90;;;20.20;99.90;;;20.27;57.54;99292.47;5013866;28;20234;-76
2022/09/22 09:23:21;;;;;;;2.72;2.17;;;20.30;99.90;;;20.27;57.78;99298.00;5056199;27;20071;-76
2022/09/22 09:25:51;;;;;;;2.80;2.60;;;20.30;99.90;;;20.28;57.61;99299.63;5092377;27;20052;-76
2022/09/22 09:28:24;;;;;;;2.20;2.00;;;20.30;99.90;;;20.33;57.54;99297.50;5087032;27;20506;-76
2022/09/22 09:30:52;;;;;;;1.75;1.65;;;20.30;99.90;;;20.34;57.21;99299.13;5085676;27;20497;-76
2022/09/22 09:33:39;;;;;;;2.45;2.22;;;20.30;99.90;;;20.37;57.19;99289.38;5070967;27;20044;-76
2022/09/22 09:36:12;;;;;;;2.63;2.42;;;20.30;99.90;;;20.37;57.16;99294.91;5108928;27;20047;-76
2022/09/22 09:38:52;;;;;;;3.72;2.50;;;20.40;99.90;;;20.42;57.17;99289.22;5055155;28;20044;-76
2022/09/22 09:41:33;;;;;;;3.53;2.55;;;20.40;99.90;;;20.41;57.13;99289.56;5060765;27;20128;-76
2022/09/22 09:44:00;;;;;;;4.07;2.40;;;20.40;99.90;;;20.43;57.07;99285.34;5089480;27;20035;-76
2022/09/22 09:47:00;;;;;;;2.00;1.80;;;20.40;99.90;;;20.46;56.84;99283.88;5092333;27;20394;-76
2022/09/22 09:49:26;;;;;;;4.07;2.50;;;20.40;99.90;;;20.51;56.70;99286.47;5104469;27;20032;-76
2022/09/22 09:51:55;;;;;;;2.30;2.10;;;20.40;99.90;;;20.51;56.75;99278.19;5086201;28;20040;-76
2022/09/22 09:54:22;;;;;;;2.30;2.10;;;20.50;99.90;;;20.53;56.57;99281.41;5073411;28;20058;-76
2022/09/22 09:57:10;;;;;;;2.90;2.30;;;20.50;99.90;;;20.63;56.34;99278.31;5091984;28;20043;-76
2022/09/22 10:03:22;;;;;;;1.92;1.77;;;20.50;99.90;;;20.52;56.46;99283.34;5095132;27;20204;-76
2022/09/22 10:06:03;;;;;;;2.80;2.17;;;20.50;99.90;;;20.41;57.00;99290.34;5105120;27;20445;-76
2022/09/22 10:08:41;;;;;;;2.42;2.22;;;20.50;99.90;;;20.38;57.26;99307.56;5073894;27;20040;-76
2022/09/22 10:11:08;;;;;;;2.40;2.20;;;20.50;99.90;;;20.41;56.94;99314.34;5100455;27;20046;-76
2022/09/22 10:13:36;;;;;;;2.20;2.08;;;20.50;99.90;;;20.38;57.29;99313.06;5088478;27;20075;-76
2022/09/22 10:16:22;;;;;;;4.25;2.22;;;20.50;99.90;;;20.35;57.15;99313.69;5087234;27;20040;-76
2022/09/22 10:19:09;;;;;;;2.28;2.08;;;20.50;99.90;;;20.34;57.23;99314.84;5105684;27;20067;-76
2022/09/22 10:21:36;;;;;;;2.40;1.65;;;20.50;99.90;;;20.41;57.11;99317.09;5103290;27;20067;-76
2022/09/22 10:24:03;;;;;;;2.67;2.33;;;20.50;99.90;;;20.39;57.26;99318.22;5092697;27;20039;-76
2022/09/22 10:26:30;;;;;;;2.33;2.13;;;20.50;99.90;;;20.39;57.50;99320.19;5073443;27;20487;-76
2022/09/22 10:29:11;;;;;;;2.45;2.25;;;20.50;99.90;;;20.47;56.95;99311.09;5105119;27;20405;-76
2022/09/22 10:31:39;;;;;;;3.40;2.30;;;20.50;99.90;;;20.49;56.91;99306.06;5102002;27;20474;-76
2022/09/22 10:34:27;;;;;;;2.15;1.95;;;20.50;99.90;;;20.53;56.79;99300.69;5088993;27;20154;-75
2022/09/22 10:36:53;;;;;;;2.00;1.80;;;20.50;99.90;;;20.50;56.45;99304.91;5087192;28;20592;-76
2022/09/22 10:39:50;;;;;;;2.63;2.35;;;20.60;99.90;;;20.52;56.72;99302.66;5091167;27;20044;-76
2022/09/22 10:42:36;;;;;;;2.20;1.90;;;20.60;99.90;;;20.57;56.75;99305.25;5083158;27;20678;-76
2022/09/22 10:45:12;;;;;;;2.70;2.20;;;20.60;99.90;;;20.61;56.35;99302.66;5091124;27;20533;-76
2022/09/22 10:48:01;;;;;;;1.60;1.50;;;20.70;99.90;;;20.66;56.47;99296.97;5095590;27;20058;-76